sensor_id;sensor_type;location;lat;lon;timestamp;temperature;humidity
23813;DHT22;12087;45.190;5.688;2022-08-19T00:01:25;19.40;99.90
23813;DHT22;12087;45.190;5.688;2022-08-19T00:06:47;19.40;99.90
23813;DHT22;12087;45.190;5.688;2022-08-19T00:12:10;19.40;99.90
23813;DHT22;12087;45.190;5.688;2022-08-19T00:17:34;19.40;99.90
23813;DHT22;12087;45.190;5.688;2022-08-19T00:22:57;19.30;99.90
23813;DHT22;12087;45.190;5.688;2022-08-19T00:28:20;19.30;99.90
23813;DHT22;12087;45.190;5.688;2022-08-19T00:33:43;19.40;99.90
23813;DHT22;12087;45.190;5.688;2022-08-19T00:39:06;19.30;99.90
23813;DHT22;12087;45.190;5.688;2022-08-19T00:44:29;19.30;99.90
23813;DHT22;12087;45.190;5.688;2022-08-19T00:49:55;19.30;99.90
23813;DHT22;12087;45.190;5.688;2022-08-19T00:55:21;19.30;99.90
23813;DHT22;12087;45.190;5.688;2022-08-19T01:00:44;19.30;99.90
23813;DHT22;12087;45.190;5.688;2022-08-19T01:06:08;19.30;99.90
23813;DHT22;12087;45.190;5.688;2022-08-19T01:11:32;19.30;99.90
23813;DHT22;12087;45.190;5.688;2022-08-19T01:16:56;19.30;99.90
23813;DHT22;12087;45.190;5.688;2022-08-19T01:22:27;19.30;99.90
23813;DHT22;12087;45.190;5.688;2022-08-19T01:27:52;19.30;99.90
23813;DHT22;12087;45.190;5.688;2022-08-19T01:33:15;19.30;99.90
23813;DHT22;12087;45.190;5.688;2022-08-19T01:38:42;19.30;99.90
23813;DHT22;12087;45.190;5.688;2022-08-19T01:44:05;19.30;99.90
23813;DHT22;12087;45.190;5.688;2022-08-19T01:49:28;19.30;99.90
23813;DHT22;12087;45.190;5.688;2022-08-19T01:54:51;19.30;99.90
23813;DHT22;12087;45.190;5.688;2022-08-19T02:00:16;19.30;99.90
23813;DHT22;12087;45.190;5.688;2022-08-19T02:05:39;19.30;99.90
23813;DHT22;12087;45.190;5.688;2022-08-19T02:11:04;19.30;99.90
23813;DHT22;12087;45.190;5.688;2022-08-19T02:16:27;19.30;99.90
23813;DHT22;12087;45.190;5.688;2022-08-19T02:21:52;19.30;99.90
23813;DHT22;12087;45.190;5.688;2022-08-19T02:27:15;19.30;99.90
23813;DHT22;12087;45.190;5.688;2022-08-19T02:32:38;19.30;99.90
23813;DHT22;12087;45.190;5.688;2022-08-19T02:38:00;19.30;99.90
23813;DHT22;12087;45.190;5.688;2022-08-19T02:43:42;19.30;99.90
23813;DHT22;12087;45.190;5.688;2022-08-19T02:49:06;19.30;99.90
23813;DHT22;12087;45.190;5.688;2022-08-19T02:54:28;19.30;99.90
23813;DHT22;12087;45.190;5.688;2022-08-19T02:59:52;19.30;99.90
23813;DHT22;12087;45.190;5.688;2022-08-19T03:05:14;19.20;99.90
23813;DHT22;12087;45.190;5.688;2022-08-19T03:10:41;19.10;99.90
23813;DHT22;12087;45.190;5.688;2022-08-19T03:16:06;19.10;99.90
23813;DHT22;12087;45.190;5.688;2022-08-19T03:21:30;19.00;99.90
23813;DHT22;12087;45.190;5.688;2022-08-19T03:26:54;19.00;99.90
23813;DHT22;12087;45.190;5.688;2022-08-19T03:32:19;19.00;99.90
23813;DHT22;12087;45.190;5.688;2022-08-19T03:37:42;19.00;99.90
23813;DHT22;12087;45.190;5.688;2022-08-19T03:43:04;19.00;99.90
23813;DHT22;12087;45.190;5.688;2022-08-19T03:48:28;19.00;99.90
23813;DHT22;12087;45.190;5.688;2022-08-19T03:53:52;18.90;99.90
23813;DHT22;12087;45.190;5.688;2022-08-19T03:59:16;18.90;99.90
23813;DHT22;12087;45.190;5.688;2022-08-19T04:04:42;18.90;99.90
23813;DHT22;12087;45.190;5.688;2022-08-19T04:10:05;18.90;99.90
23813;DHT22;12087;45.190;5.688;2022-08-19T04:15:28;18.90;99.90
23813;DHT22;12087;45.190;5.688;2022-08-19T04:20:56;18.90;99.90
23813;DHT22;12087;45.190;5.688;2022-08-19T04:26:21;18.90;99.90
23813;DHT22;12087;45.190;5.688;2022-08-19T04:31:45;18.90;99.90
23813;DHT22;12087;45.190;5.688;2022-08-19T04:37:09;18.90;99.90
23813;DHT22;12087;45.190;5.688;2022-08-19T04:42:32;18.90;99.90
23813;DHT22;12087;45.190;5.688;2022-08-19T04:48:00;18.90;99.90
23813;DHT22;12087;45.190;5.688;2022-08-19T04:53:24;18.90;99.90
23813;DHT22;12087;45.190;5.688;2022-08-19T04:58:49;18.90;99.90
23813;DHT22;12087;45.190;5.688;2022-08-19T05:04:12;18.90;99.90
23813;DHT22;12087;45.190;5.688;2022-08-19T05:09:36;18.80;99.90
23813;DHT22;12087;45.190;5.688;2022-08-19T05:14:59;18.80;99.90
23813;DHT22;12087;45.190;5.688;2022-08-19T05:20:21;18.80;99.90
23813;DHT22;12087;45.190;5.688;2022-08-19T05:26:02;18.80;99.90
23813;DHT22;12087;45.190;5.688;2022-08-19T05:31:25;18.80;99.90
23813;DHT22;12087;45.190;5.688;2022-08-19T05:36:48;18.80;99.90
23813;DHT22;12087;45.190;5.688;2022-08-19T05:42:13;18.80;99.90
23813;DHT22;12087;45.190;5.688;2022-08-19T05:47:35;18.80;99.90
23813;DHT22;12087;45.190;5.688;2022-08-19T05:52:57;18.80;99.90
23813;DHT22;12087;45.190;5.688;2022-08-19T05:58:21;18.80;99.90
23813;DHT22;12087;45.190;5.688;2022-08-19T06:03:45;18.80;99.90
23813;DHT22;12087;45.190;5.688;2022-08-19T06:09:08;18.80;99.90
23813;DHT22;12087;45.190;5.688;2022-08-19T06:14:36;18.80;99.90
23813;DHT22;12087;45.190;5.688;2022-08-19T06:19:58;18.90;99.90
23813;DHT22;12087;45.190;5.688;2022-08-19T06:25:20;18.90;99.90
23813;DHT22;12087;45.190;5.688;2022-08-19T06:30:44;18.90;99.90
23813;DHT22;12087;45.190;5.688;2022-08-19T06:36:07;18.90;99.90
23813;DHT22;12087;45.190;5.688;2022-08-19T06:41:30;18.90;99.90
23813;DHT22;12087;45.190;5.688;2022-08-19T06:46:54;18.90;99.90
23813;DHT22;12087;45.190;5.688;2022-08-19T06:52:17;18.90;99.90
23813;DHT22;12087;45.190;5.688;2022-08-19T06:57:40;18.90;99.90
23813;DHT22;12087;45.190;5.688;2022-08-19T07:03:04;19.00;99.90
23813;DHT22;12087;45.190;5.688;2022-08-19T07:08:26;19.00;99.90
23813;DHT22;12087;45.190;5.688;2022-08-19T07:13:48;19.00;99.90
23813;DHT22;12087;45.190;5.688;2022-08-19T07:19:13;19.00;99.90
23813;DHT22;12087;45.190;5.688;2022-08-19T07:24:37;19.10;99.90
23813;DHT22;12087;45.190;5.688;2022-08-19T07:30:00;19.20;99.90
23813;DHT22;12087;45.190;5.688;2022-08-19T07:35:24;19.20;99.90
23813;DHT22;12087;45.190;5.688;2022-08-19T07:40:46;19.20;99.90
23813;DHT22;12087;45.190;5.688;2022-08-19T07:46:09;19.30;99.90
23813;DHT22;12087;45.190;5.688;2022-08-19T07:51:33;19.30;99.90
23813;DHT22;12087;45.190;5.688;2022-08-19T07:56:56;19.30;99.90
23813;DHT22;12087;45.190;5.688;2022-08-19T08:02:19;19.40;99.90
23813;DHT22;12087;45.190;5.688;2022-08-19T08:07:42;19.40;99.90
23813;DHT22;12087;45.190;5.688;2022-08-19T08:13:23;19.50;99.90
23813;DHT22;12087;45.190;5.688;2022-08-19T08:18:45;19.60;99.90
23813;DHT22;12087;45.190;5.688;2022-08-19T08:24:09;19.70;99.90
23813;DHT22;12087;45.190;5.688;2022-08-19T08:29:31;19.80;99.90
23813;DHT22;12087;45.190;5.688;2022-08-19T08:34:54;19.90;99.90
23813;DHT22;12087;45.190;5.688;2022-08-19T08:40:21;20.00;99.90
23813;DHT22;12087;45.190;5.688;2022-08-19T08:45:49;20.10;99.90
23813;DHT22;12087;45.190;5.688;2022-08-19T08:51:16;20.20;99.90
23813;DHT22;12087;45.190;5.688;2022-08-19T08:56:43;20.20;99.90
23813;DHT22;12087;45.190;5.688;2022-08-19T09:02:06;20.30;99.90
23813;DHT22;12087;45.190;5.688;2022-08-19T09:07:39;20.50;99.90
23813;DHT22;12087;45.190;5.688;2022-08-19T09:13:08;20.60;99.90
23813;DHT22;12087;45.190;5.688;2022-08-19T09:18:40;20.70;99.90
23813;DHT22;12087;45.190;5.688;2022-08-19T09:24:03;20.80;99.90
23813;DHT22;12087;45.190;5.688;2022-08-19T09:29:28;20.80;99.90
23813;DHT22;12087;45.190;5.688;2022-08-19T09:35:17;20.90;99.90
23813;DHT22;12087;45.190;5.688;2022-08-19T09:40:44;20.80;99.90
23813;DHT22;12087;45.190;5.688;2022-08-19T09:46:09;20.90;99.90
23813;DHT22;12087;45.190;5.688;2022-08-19T09:51:31;20.90;99.90
23813;DHT22;12087;45.190;5.688;2022-08-19T09:56:54;20.90;99.90
23813;DHT22;12087;45.190;5.688;2022-08-19T10:02:22;21.00;99.90
23813;DHT22;12087;45.190;5.688;2022-08-19T10:07:47;21.00;99.90
23813;DHT22;12087;45.190;5.688;2022-08-19T10:13:09;20.90;99.90
23813;DHT22;12087;45.190;5.688;2022-08-19T10:18:33;21.00;99.90
23813;DHT22;12087;45.190;5.688;2022-08-19T10:23:58;21.00;99.90
23813;DHT22;12087;45.190;5.688;2022-08-19T10:29:22;21.10;99.90
23813;DHT22;12087;45.190;5.688;2022-08-19T10:34:45;21.00;99.90
23813;DHT22;12087;45.190;5.688;2022-08-19T10:40:10;21.00;99.90
23813;DHT22;12087;45.190;5.688;2022-08-19T10:45:32;21.00;99.90
23813;DHT22;12087;45.190;5.688;2022-08-19T10:50:57;21.00;99.90
23813;DHT22;12087;45.190;5.688;2022-08-19T10:56:37;20.90;99.90
23813;DHT22;12087;45.190;5.688;2022-08-19T11:02:15;20.80;99.90
23813;DHT22;12087;45.190;5.688;2022-08-19T11:07:39;20.80;99.90
23813;DHT22;12087;45.190;5.688;2022-08-19T11:13:02;20.70;99.90
23813;DHT22;12087;45.190;5.688;2022-08-19T11:18:24;20.60;99.90
23813;DHT22;12087;45.190;5.688;2022-08-19T11:23:49;20.70;99.90
23813;DHT22;12087;45.190;5.688;2022-08-19T11:29:13;20.70;99.90
23813;DHT22;12087;45.190;5.688;2022-08-19T11:34:35;20.60;99.90
23813;DHT22;12087;45.190;5.688;2022-08-19T11:39:59;20.60;99.90
23813;DHT22;12087;45.190;5.688;2022-08-19T11:45:22;20.80;99.90
23813;DHT22;12087;45.190;5.688;2022-08-19T11:50:44;21.00;99.90
23813;DHT22;12087;45.190;5.688;2022-08-19T11:56:09;21.10;99.90
23813;DHT22;12087;45.190;5.688;2022-08-19T12:01:31;21.40;99.90
23813;DHT22;12087;45.190;5.688;2022-08-19T12:06:54;21.70;99.90
23813;DHT22;12087;45.190;5.688;2022-08-19T12:12:17;21.90;99.90
23813;DHT22;12087;45.190;5.688;2022-08-19T12:17:39;21.90;99.90
23813;DHT22;12087;45.190;5.688;2022-08-19T12:23:03;21.90;99.90
23813;DHT22;12087;45.190;5.688;2022-08-19T12:28:27;21.90;99.90
23813;DHT22;12087;45.190;5.688;2022-08-19T12:33:49;21.80;99.90
23813;DHT22;12087;45.190;5.688;2022-08-19T12:39:13;21.80;99.90
23813;DHT22;12087;45.190;5.688;2022-08-19T12:44:38;21.70;99.90
23813;DHT22;12087;45.190;5.688;2022-08-19T12:50:00;21.60;99.90
23813;DHT22;12087;45.190;5.688;2022-08-19T12:55:29;21.60;99.90
23813;DHT22;12087;45.190;5.688;2022-08-19T13:00:53;21.50;99.90
23813;DHT22;12087;45.190;5.688;2022-08-19T13:06:15;21.40;99.90
23813;DHT22;12087;45.190;5.688;2022-08-19T13:11:38;21.30;99.90
23813;DHT22;12087;45.190;5.688;2022-08-19T13:17:02;21.10;99.90
23813;DHT22;12087;45.190;5.688;2022-08-19T13:22:24;20.90;99.90
23813;DHT22;12087;45.190;5.688;2022-08-19T13:27:48;20.70;99.90
23813;DHT22;12087;45.190;5.688;2022-08-19T13:33:13;20.60;99.90
23813;DHT22;12087;45.190;5.688;2022-08-19T13:38:38;20.50;99.90
23813;DHT22;12087;45.190;5.688;2022-08-19T13:44:00;20.40;99.90
23813;DHT22;12087;45.190;5.688;2022-08-19T13:49:25;20.30;99.90
23813;DHT22;12087;45.190;5.688;2022-08-19T13:54:47;20.30;99.90
23813;DHT22;12087;45.190;5.688;2022-08-19T14:00:11;20.30;99.90
23813;DHT22;12087;45.190;5.688;2022-08-19T14:05:36;20.30;99.90
23813;DHT22;12087;45.190;5.688;2022-08-19T14:10:58;20.30;99.90
23813;DHT22;12087;45.190;5.688;2022-08-19T14:16:21;20.40;99.90
23813;DHT22;12087;45.190;5.688;2022-08-19T14:21:44;20.40;99.90
23813;DHT22;12087;45.190;5.688;2022-08-19T14:27:07;20.50;99.90
23813;DHT22;12087;45.190;5.688;2022-08-19T14:32:29;20.40;99.90
23813;DHT22;12087;45.190;5.688;2022-08-19T14:37:53;20.50;99.90
23813;DHT22;12087;45.190;5.688;2022-08-19T14:43:16;20.60;99.90
23813;DHT22;12087;45.190;5.688;2022-08-19T14:48:38;20.60;99.90
23813;DHT22;12087;45.190;5.688;2022-08-19T14:54:02;20.60;99.90
23813;DHT22;12087;45.190;5.688;2022-08-19T14:59:24;20.70;99.90
23813;DHT22;12087;45.190;5.688;2022-08-19T15:04:46;20.80;99.90
23813;DHT22;12087;45.190;5.688;2022-08-19T15:10:12;20.70;99.90
23813;DHT22;12087;45.190;5.688;2022-08-19T15:15:35;20.70;99.90
23813;DHT22;12087;45.190;5.688;2022-08-19T15:20:58;20.70;99.90
23813;DHT22;12087;45.190;5.688;2022-08-19T15:26:22;20.60;99.90
23813;DHT22;12087;45.190;5.688;2022-08-19T15:31:47;20.70;99.90
23813;DHT22;12087;45.190;5.688;2022-08-19T15:37:09;20.80;99.90
23813;DHT22;12087;45.190;5.688;2022-08-19T15:42:34;21.00;99.90
23813;DHT22;12087;45.190;5.688;2022-08-19T15:47:57;21.00;99.90
23813;DHT22;12087;45.190;5.688;2022-08-19T15:53:19;21.00;99.90
23813;DHT22;12087;45.190;5.688;2022-08-19T15:58:43;21.00;99.90
23813;DHT22;12087;45.190;5.688;2022-08-19T16:04:23;21.30;99.90
23813;DHT22;12087;45.190;5.688;2022-08-19T16:10:03;21.50;99.90
23813;DHT22;12087;45.190;5.688;2022-08-19T16:15:28;21.70;99.90
23813;DHT22;12087;45.190;5.688;2022-08-19T16:20:50;21.80;99.90
23813;DHT22;12087;45.190;5.688;2022-08-19T16:26:14;21.80;99.90
23813;DHT22;12087;45.190;5.688;2022-08-19T16:31:39;21.70;99.90
23813;DHT22;12087;45.190;5.688;2022-08-19T16:37:01;21.70;99.90
23813;DHT22;12087;45.190;5.688;2022-08-19T16:42:23;21.70;99.90
23813;DHT22;12087;45.190;5.688;2022-08-19T16:47:47;21.70;99.90
23813;DHT22;12087;45.190;5.688;2022-08-19T16:53:10;21.80;99.90
23813;DHT22;12087;45.190;5.688;2022-08-19T16:58:33;21.80;99.90
23813;DHT22;12087;45.190;5.688;2022-08-19T17:03:56;21.90;99.90
23813;DHT22;12087;45.190;5.688;2022-08-19T17:09:18;21.90;99.90
23813;DHT22;12087;45.190;5.688;2022-08-19T17:14:41;21.80;99.90
23813;DHT22;12087;45.190;5.688;2022-08-19T17:20:07;21.80;99.90
23813;DHT22;12087;45.190;5.688;2022-08-19T17:25:30;21.70;99.90
23813;DHT22;12087;45.190;5.688;2022-08-19T17:30:53;21.70;99.90
23813;DHT22;12087;45.190;5.688;2022-08-19T17:36:18;21.60;99.90
23813;DHT22;12087;45.190;5.688;2022-08-19T17:41:43;21.60;99.90
23813;DHT22;12087;45.190;5.688;2022-08-19T17:47:05;21.60;99.90
23813;DHT22;12087;45.190;5.688;2022-08-19T17:52:29;21.60;99.90
23813;DHT22;12087;45.190;5.688;2022-08-19T17:57:51;21.60;99.90
23813;DHT22;12087;45.190;5.688;2022-08-19T18:03:13;21.60;99.90
23813;DHT22;12087;45.190;5.688;2022-08-19T18:08:37;21.60;99.90
23813;DHT22;12087;45.190;5.688;2022-08-19T18:13:59;21.60;99.90
23813;DHT22;12087;45.190;5.688;2022-08-19T18:19:24;21.50;99.90
23813;DHT22;12087;45.190;5.688;2022-08-19T18:24:48;21.50;99.90
23813;DHT22;12087;45.190;5.688;2022-08-19T18:30:11;21.50;99.90
23813;DHT22;12087;45.190;5.688;2022-08-19T18:35:33;21.50;99.90
23813;DHT22;12087;45.190;5.688;2022-08-19T18:41:00;21.50;99.90
23813;DHT22;12087;45.190;5.688;2022-08-19T18:46:40;21.50;99.90
23813;DHT22;12087;45.190;5.688;2022-08-19T18:52:19;21.40;99.90
23813;DHT22;12087;45.190;5.688;2022-08-19T18:57:46;21.40;99.90
23813;DHT22;12087;45.190;5.688;2022-08-19T19:03:10;21.40;99.90
23813;DHT22;12087;45.190;5.688;2022-08-19T19:08:32;21.30;99.90
23813;DHT22;12087;45.190;5.688;2022-08-19T19:13:56;21.30;99.90
23813;DHT22;12087;45.190;5.688;2022-08-19T19:19:21;21.20;99.90
23813;DHT22;12087;45.190;5.688;2022-08-19T19:24:44;21.10;99.90
23813;DHT22;12087;45.190;5.688;2022-08-19T19:30:08;21.10;99.90
23813;DHT22;12087;45.190;5.688;2022-08-19T19:35:30;21.00;99.90
23813;DHT22;12087;45.190;5.688;2022-08-19T19:40:53;20.90;99.90
23813;DHT22;12087;45.190;5.688;2022-08-19T19:46:16;20.80;99.90
23813;DHT22;12087;45.190;5.688;2022-08-19T19:51:39;20.70;99.90
23813;DHT22;12087;45.190;5.688;2022-08-19T19:57:02;20.70;99.90
23813;DHT22;12087;45.190;5.688;2022-08-19T20:02:28;20.60;99.90
23813;DHT22;12087;45.190;5.688;2022-08-19T20:07:56;20.60;99.90
23813;DHT22;12087;45.190;5.688;2022-08-19T20:13:35;20.50;99.90
23813;DHT22;12087;45.190;5.688;2022-08-19T20:19:01;20.50;99.90
23813;DHT22;12087;45.190;5.688;2022-08-19T20:24:27;20.60;99.90
23813;DHT22;12087;45.190;5.688;2022-08-19T20:29:52;20.60;99.90
23813;DHT22;12087;45.190;5.688;2022-08-19T20:35:18;20.60;99.90
23813;DHT22;12087;45.190;5.688;2022-08-19T20:40:41;20.50;99.90
23813;DHT22;12087;45.190;5.688;2022-08-19T20:46:04;20.50;99.90
23813;DHT22;12087;45.190;5.688;2022-08-19T20:51:29;20.50;99.90
23813;DHT22;12087;45.190;5.688;2022-08-19T20:56:51;20.60;99.90
23813;DHT22;12087;45.190;5.688;2022-08-19T21:02:13;20.50;99.90
23813;DHT22;12087;45.190;5.688;2022-08-19T21:07:37;20.50;99.90
23813;DHT22;12087;45.190;5.688;2022-08-19T21:12:59;20.50;99.90
23813;DHT22;12087;45.190;5.688;2022-08-19T21:18:23;20.50;99.90
23813;DHT22;12087;45.190;5.688;2022-08-19T21:23:48;20.50;99.90
23813;DHT22;12087;45.190;5.688;2022-08-19T21:29:16;20.50;99.90
23813;DHT22;12087;45.190;5.688;2022-08-19T21:34:41;20.40;99.90
23813;DHT22;12087;45.190;5.688;2022-08-19T21:40:46;20.40;99.90
23813;DHT22;12087;45.190;5.688;2022-08-19T21:52:10;20.40;99.90
23813;DHT22;12087;45.190;5.688;2022-08-19T21:57:37;20.30;99.90
23813;DHT22;12087;45.190;5.688;2022-08-19T22:03:00;20.30;99.90
23813;DHT22;12087;45.190;5.688;2022-08-19T22:08:22;20.20;99.90
23813;DHT22;12087;45.190;5.688;2022-08-19T22:13:46;20.20;99.90
23813;DHT22;12087;45.190;5.688;2022-08-19T22:19:08;20.30;99.90
23813;DHT22;12087;45.190;5.688;2022-08-19T22:24:32;20.30;99.90
23813;DHT22;12087;45.190;5.688;2022-08-19T22:29:55;20.20;99.90
23813;DHT22;12087;45.190;5.688;2022-08-19T22:35:19;20.20;99.90
23813;DHT22;12087;45.190;5.688;2022-08-19T22:40:44;20.20;99.90
23813;DHT22;12087;45.190;5.688;2022-08-19T22:46:08;20.20;99.90
23813;DHT22;12087;45.190;5.688;2022-08-19T22:51:30;20.20;99.90
23813;DHT22;12087;45.190;5.688;2022-08-19T22:57:10;20.20;99.90
23813;DHT22;12087;45.190;5.688;2022-08-19T23:02:35;20.20;99.90
23813;DHT22;12087;45.190;5.688;2022-08-19T23:07:58;20.10;99.90
23813;DHT22;12087;45.190;5.688;2022-08-19T23:13:20;20.10;99.90
23813;DHT22;12087;45.190;5.688;2022-08-19T23:18:43;20.10;99.90
23813;DHT22;12087;45.190;5.688;2022-08-19T23:24:06;20.00;99.90
23813;DHT22;12087;45.190;5.688;2022-08-19T23:29:28;20.00;99.90
23813;DHT22;12087;45.190;5.688;2022-08-19T23:35:09;20.10;99.90
23813;DHT22;12087;45.190;5.688;2022-08-19T23:40:32;20.00;99.90
23813;DHT22;12087;45.190;5.688;2022-08-19T23:45:56;20.00;99.90
23813;DHT22;12087;45.190;5.688;2022-08-19T23:51:20;20.00;99.90
23813;DHT22;12087;45.190;5.688;2022-08-19T23:56:42;20.00;99.90
